createdAt,value
2019-04-10T00:00:35.674Z,56.73
2019-04-10T00:03:06.133Z,54.20
2019-04-10T00:05:36.195Z,55.50
2019-04-10T00:08:06.169Z,57.37
2019-04-10T00:10:36.210Z,58.53
2019-04-10T00:13:06.646Z,58.07
2019-04-10T00:15:36.079Z,58.03
2019-04-10T00:18:05.363Z,56.63
2019-04-10T00:20:34.553Z,57.13
2019-04-10T00:23:03.915Z,58.37
2019-04-10T00:25:33.039Z,57.90
2019-04-10T00:28:03.171Z,58.27
2019-04-10T00:30:33.272Z,57.43
2019-04-10T00:33:02.719Z,54.97
2019-04-10T00:35:31.950Z,55.50
2019-04-10T00:38:01.688Z,55.67
2019-04-10T00:40:31.194Z,56.13
2019-04-10T00:43:00.359Z,54.30
2019-04-10T00:45:29.448Z,57.10
2019-04-10T00:47:59.525Z,56.60
2019-04-10T00:50:28.758Z,56.80
2019-04-10T00:52:58.761Z,54.60
2019-04-10T00:55:28.807Z,55.87
2019-04-10T00:57:58.554Z,56.57
2019-04-10T01:00:28.707Z,55.53
2019-04-10T01:02:58.789Z,54.50
2019-04-10T01:05:28.083Z,56.93
2019-04-10T01:07:57.167Z,55.67
2019-04-10T01:10:26.309Z,55.00
2019-04-10T01:12:56.474Z,55.43
2019-04-10T01:15:26.656Z,56.73
2019-04-10T01:17:56.894Z,56.60
2019-04-10T01:20:26.303Z,53.60
2019-04-10T01:22:55.416Z,55.20
2019-04-10T01:25:24.498Z,56.47
2019-04-10T01:27:53.607Z,57.10
2019-04-10T01:30:22.718Z,57.10
2019-04-10T01:32:52.326Z,56.87
2019-04-10T01:35:22.377Z,55.73
2019-04-10T01:37:56.178Z,55.93
2019-04-10T01:40:23.397Z,59.70
2019-04-10T01:43:02.258Z,56.67
2019-04-10T01:45:23.462Z,57.47
2019-04-10T01:47:53.311Z,56.13
2019-04-10T01:50:22.742Z,52.73
2019-04-10T01:52:51.864Z,54.13
2019-04-10T01:55:25.847Z,53.07
2019-04-10T01:57:52.621Z,57.73
2019-04-10T02:00:23.578Z,56.37
2019-04-10T02:02:53.953Z,53.77
2019-04-10T02:05:23.123Z,53.63
2019-04-10T02:08:01.119Z,53.90
2019-04-10T02:10:23.847Z,52.00
2019-04-10T02:12:52.977Z,54.37
2019-04-10T02:15:22.230Z,55.60
2019-04-10T02:17:51.324Z,53.97
2019-04-10T02:20:21.025Z,57.43
2019-04-10T02:22:50.226Z,55.00
2019-04-10T02:25:19.928Z,56.03
2019-04-10T02:27:49.124Z,54.17
2019-04-10T02:30:19.697Z,54.97
2019-04-10T02:32:50.843Z,54.90
2019-04-10T02:35:23.700Z,55.53
2019-04-10T02:37:54.727Z,53.67
2019-04-10T02:40:23.449Z,56.27
2019-04-10T02:42:52.360Z,55.00
2019-04-10T02:45:22.028Z,58.03
2019-04-10T02:47:52.784Z,55.17
2019-04-10T02:50:21.970Z,56.87
2019-04-10T02:52:51.115Z,58.00
2019-04-10T02:55:20.378Z,57.33
2019-04-10T02:57:50.017Z,56.63
2019-04-10T03:00:20.313Z,58.00
2019-04-10T03:02:51.960Z,57.07
2019-04-10T03:05:22.976Z,56.50
2019-04-10T03:07:52.600Z,56.40
2019-04-10T03:10:29.750Z,55.50
2019-04-10T03:12:53.112Z,56.47
2019-04-10T03:15:23.418Z,57.77
2019-04-10T03:17:52.548Z,57.73
2019-04-10T03:20:22.464Z,54.97
2019-04-10T03:22:51.551Z,58.23
2019-04-10T03:25:21.202Z,55.90
2019-04-10T03:27:50.485Z,57.50
2019-04-10T03:30:22.404Z,56.00
2019-04-10T03:33:09.376Z,57.20
2019-04-10T03:35:45.599Z,54.83
2019-04-10T03:38:16.293Z,53.13
2019-04-10T03:40:45.862Z,53.10
2019-04-10T03:43:14.897Z,51.67
2019-04-10T03:45:44.491Z,52.90
2019-04-10T03:48:15.981Z,53.13
2019-04-10T03:50:45.211Z,50.43
2019-04-10T03:53:14.276Z,52.77
2019-04-10T03:55:43.403Z,50.53
2019-04-10T03:58:13.563Z,49.13
2019-04-10T04:00:42.784Z,52.57
2019-04-10T04:03:12.750Z,48.13
2019-04-10T04:05:42.573Z,51.87
2019-04-10T04:08:13.030Z,50.33
2019-04-10T04:10:42.648Z,51.67
2019-04-10T04:13:11.924Z,50.27
2019-04-10T04:15:42.126Z,48.67
2019-04-10T04:18:11.247Z,48.63
2019-04-10T04:20:41.268Z,46.90
2019-04-10T04:23:10.347Z,47.77
2019-04-10T04:25:39.439Z,49.60
2019-04-10T04:28:08.863Z,48.33
2019-04-10T04:30:38.928Z,43.23
2019-04-10T04:33:08.834Z,44.83
2019-04-10T04:35:38.736Z,47.77
2019-04-10T04:38:07.791Z,47.37
2019-04-10T04:40:37.733Z,45.37
2019-04-10T04:43:07.879Z,46.13
2019-04-10T04:45:37.776Z,43.67
2019-04-10T04:48:07.767Z,43.03
2019-04-10T04:50:38.131Z,43.60
2019-04-10T04:53:08.627Z,41.47
2019-04-10T04:55:37.760Z,44.60
2019-04-10T04:58:06.861Z,40.03
2019-04-10T05:00:36.116Z,40.47
2019-04-10T05:03:05.221Z,41.87
2019-04-10T05:05:34.290Z,39.80
2019-04-10T05:08:05.406Z,41.47
2019-04-10T05:10:34.341Z,39.80
2019-04-10T05:13:04.055Z,40.83
2019-04-10T05:15:33.410Z,42.27
2019-04-10T05:18:02.538Z,40.93
2019-04-10T05:20:41.234Z,39.90
2019-04-10T05:23:02.508Z,41.63
2019-04-10T05:25:31.688Z,38.50
2019-04-10T05:28:01.574Z,39.03
2019-04-10T05:30:31.384Z,40.53
2019-04-10T05:33:00.501Z,39.97
2019-04-10T05:35:29.907Z,38.10
2019-04-10T05:37:59.110Z,36.80
2019-04-10T05:40:28.430Z,37.27
2019-04-10T05:42:57.550Z,37.93
2019-04-10T05:45:27.669Z,37.80
2019-04-10T05:47:56.981Z,36.17
2019-04-10T05:50:26.189Z,35.27
2019-04-10T05:52:55.925Z,35.57
2019-04-10T05:55:25.113Z,36.43
2019-04-10T05:57:55.186Z,36.10
2019-04-10T06:00:25.030Z,35.73
2019-04-10T06:02:54.332Z,36.37
2019-04-10T06:05:24.434Z,35.10
2019-04-10T06:07:53.910Z,35.83
2019-04-10T06:10:23.154Z,35.60
2019-04-10T06:12:53.018Z,33.57
2019-04-10T06:15:23.225Z,36.27
2019-04-10T06:17:52.498Z,35.80
2019-04-10T06:20:21.629Z,34.40
2019-04-10T06:22:51.026Z,32.67
2019-04-10T06:25:23.555Z,31.47
2019-04-10T06:27:51.104Z,33.00
2019-04-10T06:30:20.267Z,33.93
2019-04-10T06:32:49.497Z,32.37
2019-04-10T06:35:19.682Z,32.27
2019-04-10T06:37:48.876Z,34.17
2019-04-10T06:40:22.165Z,32.10
2019-04-10T06:42:52.310Z,33.20
2019-04-10T06:45:19.897Z,31.23
2019-04-10T06:47:48.994Z,29.63
2019-04-10T06:50:19.003Z,29.07
2019-04-10T06:52:49.041Z,29.90
2019-04-10T06:55:18.615Z,28.40
2019-04-10T06:57:51.795Z,30.13
2019-04-10T07:00:19.707Z,27.33
2019-04-10T07:02:50.452Z,29.47
2019-04-10T07:05:19.932Z,27.17
2019-04-10T07:07:53.556Z,26.73
2019-04-10T07:10:27.348Z,27.67
2019-04-10T07:12:51.291Z,27.63
2019-04-10T07:15:23.624Z,28.43
2019-04-10T07:17:51.389Z,26.60
2019-04-10T07:20:21.275Z,24.57
2019-04-10T07:22:51.422Z,28.63
2019-04-10T07:25:21.699Z,27.33
2019-04-10T07:27:50.830Z,26.03
2019-04-10T07:30:24.062Z,25.70
2019-04-10T07:32:50.972Z,25.77
2019-04-10T07:35:21.837Z,25.87
2019-04-10T07:37:54.377Z,25.03
2019-04-10T07:40:22.802Z,26.37
2019-04-10T07:42:52.543Z,24.53
2019-04-10T07:45:26.401Z,25.23
2019-04-10T07:47:53.865Z,23.40
2019-04-10T07:50:23.125Z,25.27
2019-04-10T07:52:52.323Z,24.53
2019-04-10T07:55:23.569Z,27.20
2019-04-10T07:57:53.218Z,24.70
2019-04-10T08:00:22.356Z,23.20
2019-04-10T08:02:51.593Z,22.43
2019-04-10T08:05:21.020Z,21.80
2019-04-10T08:07:52.761Z,23.10
2019-04-10T08:10:21.177Z,24.63
2019-04-10T08:12:53.636Z,23.37
2019-04-10T08:15:21.427Z,23.97
2019-04-10T08:17:51.390Z,23.83
2019-04-10T08:20:21.866Z,23.30
2019-04-10T08:22:51.274Z,21.80
2019-04-10T08:25:22.985Z,23.30
2019-04-10T08:27:52.491Z,23.37
2019-04-10T08:30:21.675Z,22.97
2019-04-10T08:32:57.041Z,22.07
2019-04-10T08:35:21.719Z,31.87
2019-04-10T08:37:50.953Z,25.12
2019-04-10T08:40:21.162Z,21.20
2019-04-10T08:42:51.287Z,20.10
2019-04-10T08:45:21.047Z,22.43
2019-04-10T08:47:50.799Z,21.97
2019-04-10T08:50:20.031Z,20.47
2019-04-10T08:52:49.131Z,22.40
2019-04-10T08:55:18.274Z,19.93
2019-04-10T08:57:47.455Z,20.27
2019-04-10T09:00:16.811Z,19.23
2019-04-10T09:02:46.489Z,19.73
2019-04-10T09:05:15.848Z,19.23
2019-04-10T09:07:44.949Z,19.37
2019-04-10T09:10:14.377Z,17.27
2019-04-10T09:12:43.498Z,18.37
2019-04-10T09:15:13.876Z,18.30
2019-04-10T09:17:43.830Z,17.07
2019-04-10T09:20:14.193Z,18.47
2019-04-10T09:23:07.373Z,17.30
2019-04-10T09:25:16.104Z,18.40
2019-04-10T09:27:46.177Z,18.30
2019-04-10T09:30:16.433Z,17.23
2019-04-10T09:32:46.522Z,16.13
2019-04-10T09:35:16.385Z,17.63
2019-04-10T09:37:46.272Z,16.27
2019-04-10T09:40:16.236Z,14.60
2019-04-10T09:42:46.023Z,15.93
2019-04-10T09:45:15.766Z,15.97
2019-04-10T09:47:52.333Z,15.67
2019-04-10T09:50:21.476Z,14.03
2019-04-10T09:52:50.661Z,15.67
2019-04-10T09:55:20.139Z,16.27
2019-04-10T09:57:51.832Z,14.43
2019-04-10T10:00:21.412Z,14.90
2019-04-10T10:02:50.776Z,14.53
2019-04-10T10:05:20.300Z,14.93
2019-04-10T10:07:49.398Z,15.00
2019-04-10T10:10:18.612Z,15.23
2019-04-10T10:12:48.497Z,14.70
2019-04-10T10:15:18.888Z,20.30
2019-04-10T10:17:48.828Z,14.63
2019-04-10T10:20:19.669Z,13.27
2019-04-10T10:22:49.522Z,14.37
2019-04-10T10:25:19.436Z,13.73
2019-04-10T10:27:48.941Z,13.50
2019-04-10T10:30:18.305Z,12.87
2019-04-10T10:32:47.453Z,13.53
2019-04-10T10:35:16.869Z,13.47
2019-04-10T10:37:46.321Z,13.67
2019-04-10T10:40:17.270Z,14.70
2019-04-10T10:42:47.623Z,15.13
2019-04-10T10:45:17.083Z,14.63
2019-04-10T10:47:46.504Z,14.33
2019-04-10T10:50:15.754Z,13.77
2019-04-10T10:52:45.889Z,15.27
2019-04-10T10:55:15.657Z,13.37
2019-04-10T10:57:44.893Z,12.23
2019-04-10T11:00:15.225Z,13.93
2019-04-10T11:02:45.350Z,13.87
2019-04-10T11:05:14.829Z,14.60
2019-04-10T11:07:44.033Z,14.23
2019-04-10T11:10:13.254Z,14.07
2019-04-10T11:12:42.459Z,13.07
2019-04-10T11:15:12.395Z,13.80
2019-04-10T11:17:42.198Z,13.33
2019-04-10T11:20:12.882Z,13.67
2019-04-10T11:22:42.494Z,12.70
2019-04-10T11:25:13.332Z,13.00
2019-04-10T11:27:42.752Z,12.97
2019-04-10T11:30:13.592Z,13.75
2019-04-10T11:32:44.366Z,12.73
2019-04-10T11:35:15.403Z,13.80
2019-04-10T11:37:48.348Z,14.20
2019-04-10T11:40:17.910Z,13.63
2019-04-10T11:42:47.093Z,13.80
2019-04-10T11:45:19.022Z,13.20
2019-04-10T11:47:50.787Z,13.25
2019-04-10T11:50:19.090Z,13.63
2019-04-10T11:52:53.203Z,14.47
2019-04-10T11:55:21.185Z,12.67
2019-04-10T11:57:51.542Z,12.50
2019-04-10T12:00:45.422Z,13.50
2019-04-10T12:03:10.254Z,12.13
2019-04-10T12:05:41.324Z,13.30
2019-04-10T12:13:15.595Z,13.07
2019-04-10T12:15:45.848Z,13.33
2019-04-10T12:18:16.137Z,14.10
2019-04-10T12:20:45.322Z,13.90
2019-04-10T12:23:14.673Z,14.47
2019-04-10T12:25:43.783Z,13.53
2019-04-10T12:28:13.787Z,14.18
2019-04-10T12:30:43.608Z,14.37
2019-04-10T12:33:13.588Z,15.10
2019-04-10T12:35:42.750Z,13.57
2019-04-10T12:38:13.322Z,14.47
2019-04-10T12:40:42.711Z,13.97
2019-04-10T12:43:12.658Z,13.63
2019-04-10T12:45:41.844Z,14.77
2019-04-10T12:48:11.058Z,15.70
2019-04-10T12:50:41.267Z,14.73
2019-04-10T12:53:11.565Z,14.73
2019-04-10T12:55:41.761Z,14.93
2019-04-10T12:58:15.595Z,15.00
2019-04-10T13:00:42.893Z,14.03
2019-04-10T13:03:12.107Z,14.83
2019-04-10T13:05:43.026Z,14.20
2019-04-10T13:08:21.286Z,15.70
2019-04-10T13:10:43.611Z,14.40
2019-04-10T13:13:13.634Z,15.50
2019-04-10T13:15:43.543Z,15.15
2019-04-10T13:18:12.739Z,14.58
2019-04-10T13:20:42.031Z,13.28
2019-04-10T13:23:13.566Z,15.07
2019-04-10T13:25:42.775Z,15.18
2019-04-10T13:28:12.994Z,14.38
2019-04-10T13:30:49.725Z,14.23
2019-04-10T13:33:14.256Z,13.95
2019-04-10T13:35:49.146Z,14.60
2019-04-10T13:38:27.604Z,12.70
2019-04-10T13:40:50.158Z,13.88
2019-04-10T13:43:19.994Z,13.35
2019-04-10T13:45:49.225Z,13.38
2019-04-10T13:48:20.793Z,15.28
2019-04-10T13:50:50.832Z,13.48
2019-04-10T13:53:20.242Z,13.85
2019-04-10T13:55:50.601Z,13.13
2019-04-10T13:58:21.323Z,14.03
2019-04-10T14:00:52.118Z,14.35
2019-04-10T14:03:22.576Z,13.13
2019-04-10T14:05:52.878Z,13.55
2019-04-10T14:08:35.950Z,13.48
2019-04-10T14:10:53.118Z,13.63
2019-04-10T14:13:22.289Z,14.58
2019-04-10T14:15:52.465Z,13.67
2019-04-10T14:18:22.048Z,13.00
2019-04-10T14:20:51.345Z,13.03
2019-04-10T14:23:26.397Z,13.20
2019-04-10T14:26:18.298Z,13.70
2019-04-10T14:28:49.166Z,12.37
2019-04-10T14:31:37.396Z,13.03
2019-04-10T14:34:06.691Z,12.43
2019-04-10T14:36:36.031Z,13.13
2019-04-10T14:39:16.731Z,11.77
2019-04-10T14:41:44.225Z,11.87
2019-04-10T14:44:14.550Z,11.70
2019-04-10T14:46:44.236Z,12.43
2019-04-10T14:49:13.945Z,13.43
2019-04-10T14:51:44.281Z,12.70
2019-04-10T14:54:13.511Z,12.83
2019-04-10T14:56:42.818Z,12.17
2019-04-10T14:59:12.079Z,11.27
2019-04-10T15:01:42.043Z,11.73
2019-04-10T15:04:11.314Z,12.33
2019-04-10T15:06:41.646Z,12.13
2019-04-10T15:09:25.398Z,11.10
2019-04-10T15:11:51.081Z,11.47
2019-04-10T15:14:21.520Z,11.73
2019-04-10T15:16:56.465Z,12.03
2019-04-10T15:19:22.626Z,12.10
2019-04-10T15:21:53.671Z,11.73
2019-04-10T15:24:23.773Z,11.90
2019-04-10T15:26:54.097Z,13.27
2019-04-10T15:29:24.719Z,12.93
2019-04-10T15:31:54.038Z,14.73
2019-04-10T15:34:23.199Z,14.00
2019-04-10T15:36:52.892Z,13.17
2019-04-10T15:39:30.605Z,12.27
2019-04-10T15:41:52.867Z,12.77
2019-04-10T15:44:22.286Z,14.10
2019-04-10T15:46:51.431Z,12.63
2019-04-10T15:49:20.674Z,12.87
2019-04-10T15:51:49.953Z,12.90
2019-04-10T15:54:19.084Z,13.60
2019-04-10T15:56:48.412Z,15.00
2019-04-10T15:59:17.629Z,13.97
2019-04-10T16:01:46.969Z,14.43
2019-04-10T16:04:17.113Z,14.03
2019-04-10T16:06:47.399Z,14.90
2019-04-10T16:09:16.981Z,13.60
2019-04-10T16:12:06.102Z,15.47
2019-04-10T16:14:35.885Z,15.60
2019-04-10T16:17:29.567Z,15.33
2019-04-10T16:20:36.915Z,13.43
2019-04-10T16:23:12.286Z,13.97
2019-04-10T16:25:45.132Z,14.77
2019-04-10T16:28:14.551Z,14.53
2019-04-10T16:30:43.968Z,14.70
2019-04-10T16:33:13.132Z,14.77
2019-04-10T16:35:42.301Z,14.23
2019-04-10T16:38:12.132Z,14.37
2019-04-10T16:40:41.368Z,16.10
2019-04-10T16:43:12.053Z,15.20
2019-04-10T16:45:42.466Z,14.53
2019-04-10T16:48:11.783Z,15.83
2019-04-10T16:50:40.971Z,19.07
2019-04-10T16:53:10.172Z,17.80
2019-04-10T16:55:39.348Z,15.83
2019-04-10T16:58:09.611Z,14.90
2019-04-10T17:00:39.703Z,14.67
2019-04-10T17:03:09.329Z,13.83
2019-04-10T17:05:41.964Z,14.33
2019-04-10T17:08:11.919Z,14.73
2019-04-10T17:10:41.351Z,15.67
2019-04-10T17:13:10.786Z,14.90
2019-04-10T17:15:40.133Z,15.33
2019-04-10T17:18:09.313Z,15.10
2019-04-10T17:20:38.498Z,15.53
2019-04-10T17:23:08.256Z,16.67
2019-04-10T17:25:38.155Z,16.60
2019-04-10T17:28:08.203Z,15.20
2019-04-10T17:30:38.041Z,15.50
2019-04-10T17:33:08.877Z,15.67
2019-04-10T17:35:38.196Z,14.97
2019-04-10T17:38:07.371Z,15.83
2019-04-10T17:40:45.893Z,17.53
2019-04-10T17:43:12.727Z,17.63
2019-04-10T17:45:42.827Z,19.40
2019-04-10T17:48:13.565Z,24.27
2019-04-10T17:50:43.697Z,26.30
2019-04-10T17:53:13.347Z,23.83
2019-04-10T17:55:44.098Z,20.60
2019-04-10T17:58:13.668Z,17.50
2019-04-10T18:00:45.305Z,17.27
2019-04-10T18:03:17.868Z,18.40
2019-04-10T18:05:46.741Z,18.63
2019-04-10T18:08:16.668Z,14.87
2019-04-10T18:10:49.892Z,17.47
2019-04-10T18:13:18.342Z,15.93
2019-04-10T18:15:48.379Z,16.50
2019-04-10T18:18:17.792Z,15.73
2019-04-10T18:20:47.002Z,17.60
2019-04-10T18:23:17.488Z,17.67
2019-04-10T18:25:46.665Z,17.77
2019-04-10T18:28:22.274Z,19.10
2019-04-10T18:30:52.301Z,18.53
2019-04-10T18:33:22.424Z,19.53
2019-04-10T18:35:51.682Z,18.90
2019-04-10T18:38:21.624Z,18.87
2019-04-10T18:40:58.026Z,19.43
2019-04-10T18:43:23.036Z,17.67
2019-04-10T18:46:02.987Z,16.73
2019-04-10T18:48:23.230Z,16.97
2019-04-10T18:50:53.657Z,16.48
2019-04-10T18:53:23.070Z,17.60
2019-04-10T18:55:52.342Z,17.50
2019-04-10T18:58:25.600Z,19.50
2019-04-10T19:01:14.733Z,19.73
2019-04-10T19:04:16.232Z,20.20
2019-04-10T19:06:58.733Z,19.43
2019-04-10T19:09:30.794Z,20.97
2019-04-10T19:12:00.362Z,20.17
2019-04-10T19:14:30.318Z,19.03
2019-04-10T19:17:00.394Z,17.07
2019-04-10T19:19:29.671Z,15.80
2019-04-10T19:22:00.046Z,17.20
2019-04-10T19:24:30.283Z,16.20
2019-04-10T19:27:00.053Z,18.47
2019-04-10T19:29:29.659Z,20.07
2019-04-10T19:32:02.177Z,19.87
2019-04-10T19:34:31.756Z,19.70
2019-04-10T19:37:00.830Z,17.67
2019-04-10T19:39:30.093Z,18.60
2019-04-10T19:41:59.237Z,17.43
2019-04-10T19:44:28.918Z,17.80
2019-04-10T19:46:58.163Z,19.17
2019-04-10T19:49:28.175Z,19.50
2019-04-10T19:51:58.150Z,31.13
2019-04-10T19:54:28.309Z,23.80
2019-04-10T19:56:57.487Z,20.73
2019-04-10T19:59:27.114Z,21.20
2019-04-10T20:01:56.334Z,19.47
2019-04-10T20:04:26.301Z,17.67
2019-04-10T20:06:56.450Z,17.87
2019-04-10T20:09:25.711Z,18.63
2019-04-10T20:11:57.002Z,18.63
2019-04-10T20:14:25.819Z,19.50
2019-04-10T20:16:55.522Z,19.17
2019-04-10T20:19:24.758Z,20.43
2019-04-10T20:21:54.548Z,20.60
2019-04-10T20:24:24.936Z,19.23
2019-04-10T20:26:54.222Z,18.33
2019-04-10T20:29:23.358Z,18.93
2019-04-10T20:31:53.356Z,17.27
2019-04-10T20:34:23.256Z,17.87
2019-04-10T20:36:53.316Z,17.33
2019-04-10T20:39:23.243Z,16.40
2019-04-10T20:41:55.553Z,16.43
2019-04-10T20:44:23.330Z,14.77
2019-04-10T20:46:52.829Z,15.57
2019-04-10T20:49:22.484Z,14.07
2019-04-10T20:51:51.760Z,14.03
2019-04-10T20:54:20.891Z,13.13
2019-04-10T20:56:50.764Z,12.83
2019-04-10T20:59:20.063Z,12.03
2019-04-10T21:01:49.330Z,12.33
2019-04-10T21:04:18.517Z,12.77
2019-04-10T21:06:48.173Z,11.80
2019-04-10T21:09:17.386Z,12.33
2019-04-10T21:11:58.872Z,12.30
2019-04-10T21:14:17.460Z,11.10
2019-04-10T21:16:47.608Z,10.53
2019-04-10T21:19:16.788Z,11.70
2019-04-10T21:21:46.856Z,10.80
2019-04-10T21:24:16.765Z,10.77
2019-04-10T21:26:46.457Z,10.73
2019-04-10T21:29:25.493Z,9.83
2019-04-10T21:32:13.737Z,9.77
2019-04-10T21:34:44.932Z,9.50
2019-04-10T21:37:14.296Z,8.80
2019-04-10T21:39:43.808Z,8.57
2019-04-10T21:42:20.111Z,9.13
2019-04-10T21:44:44.978Z,9.20
2019-04-10T21:47:14.375Z,9.67
2019-04-10T21:49:44.193Z,9.40
2019-04-10T21:52:14.318Z,9.80
2019-04-10T21:54:49.500Z,10.13
2019-04-10T21:57:15.973Z,10.57
2019-04-10T21:59:45.597Z,9.43
2019-04-10T22:02:15.323Z,10.23
2019-04-10T22:04:45.555Z,9.20
2019-04-10T22:07:28.191Z,9.30
2019-04-10T22:10:30.020Z,9.30
2019-04-10T22:12:59.565Z,9.13
2019-04-10T22:15:35.564Z,9.17
2019-04-10T22:18:05.202Z,8.83
2019-04-10T22:20:34.619Z,8.83
2019-04-10T22:23:04.180Z,8.93
2019-04-10T22:25:33.667Z,8.53
2019-04-10T22:28:04.259Z,7.97
2019-04-10T22:30:33.661Z,8.53
2019-04-10T22:33:03.354Z,7.87
2019-04-10T22:35:33.545Z,7.17
2019-04-10T22:38:02.714Z,8.00
2019-04-10T22:40:31.820Z,8.27
2019-04-10T22:43:01.222Z,7.20
2019-04-10T22:45:32.678Z,7.53
2019-04-10T22:48:02.291Z,7.37
2019-04-10T22:50:31.622Z,7.03
2019-04-10T22:53:01.424Z,8.07
2019-04-10T22:55:31.779Z,7.20
2019-04-10T22:58:00.992Z,8.40
2019-04-10T23:00:33.346Z,7.37
2019-04-10T23:03:03.157Z,7.73
2019-04-10T23:05:32.523Z,8.10
2019-04-10T23:08:01.616Z,7.67
2019-04-10T23:10:30.978Z,7.90
2019-04-10T23:13:04.873Z,7.33
2019-04-10T23:15:31.434Z,8.07
2019-04-10T23:18:01.284Z,7.27
2019-04-10T23:20:30.598Z,6.93
2019-04-10T23:23:00.919Z,6.90
2019-04-10T23:25:30.150Z,7.40
2019-04-10T23:27:59.313Z,6.73
2019-04-10T23:30:28.823Z,7.73
2019-04-10T23:32:57.913Z,8.00
2019-04-10T23:35:27.636Z,7.67
2019-04-10T23:37:57.417Z,8.30
2019-04-10T23:40:27.183Z,7.63
2019-04-10T23:43:07.718Z,6.87
2019-04-10T23:45:27.358Z,7.30
2019-04-10T23:47:56.470Z,7.60
2019-04-10T23:50:26.140Z,7.17
2019-04-10T23:52:56.224Z,7.27
2019-04-10T23:55:26.163Z,7.03
2019-04-10T23:57:55.942Z,7.30
